createdAt,value
2022-10-02T00:02:02.759Z,4.40
2022-10-02T00:32:06.306Z,3.30
2022-10-02T01:02:09.081Z,3.77
2022-10-02T01:32:13.499Z,2.30
2022-10-02T02:02:16.323Z,1.70
2022-10-02T02:32:19.949Z,2.20
2022-10-02T03:02:22.692Z,2.23
2022-10-02T03:32:26.628Z,1.50
2022-10-02T04:02:29.587Z,2.77
2022-10-02T04:32:32.671Z,2.30
2022-10-02T05:02:35.986Z,2.40
2022-10-02T05:32:39.616Z,2.67
2022-10-02T06:02:42.865Z,3.53
2022-10-02T06:32:46.370Z,2.50
2022-10-02T07:02:49.571Z,2.60
2022-10-02T07:32:52.611Z,2.23
2022-10-02T08:02:56.234Z,2.63
2022-10-02T08:32:59.719Z,2.80
2022-10-02T09:03:03.096Z,2.43
2022-10-02T09:33:06.538Z,2.00
2022-10-02T10:03:09.813Z,2.10
2022-10-02T10:33:14.092Z,1.25
2022-10-02T11:03:17.414Z,1.53
2022-10-02T11:33:20.821Z,1.20
2022-10-02T12:03:23.594Z,1.50
2022-10-02T12:33:27.899Z,1.30
2022-10-02T13:03:30.698Z,1.43
2022-10-02T13:33:35.343Z,1.40
2022-10-02T14:03:38.134Z,1.23
2022-10-02T14:33:42.347Z,1.00
2022-10-02T15:03:45.065Z,0.60
2022-10-02T15:33:49.198Z,0.90
2022-10-02T16:03:52.579Z,0.83
2022-10-02T16:33:55.486Z,1.30
2022-10-02T17:03:59.271Z,3.40
2022-10-02T17:34:02.201Z,2.70
2022-10-02T18:04:05.667Z,1.60
2022-10-02T18:34:09.123Z,3.47
2022-10-02T19:04:11.882Z,1.93
2022-10-02T19:34:15.301Z,2.40
2022-10-02T20:04:18.357Z,2.30
2022-10-02T20:34:22.392Z,2.43
2022-10-02T21:04:25.124Z,2.67
2022-10-02T21:34:28.745Z,1.90
2022-10-02T22:04:31.648Z,1.80
2022-10-02T22:34:34.546Z,1.47
2022-10-02T23:04:37.977Z,2.50
2022-10-02T23:34:41.523Z,2.20
